Nearby METAR Reports

 

EGNT - Newcastle, United Kingdom
Distance from station: N 1mi, 2km
Updated: 25/05/2022 18:20
Partly cloudy
Partly cloudy
 Wind from W
Wind: W 25 mph , 41 km/h
Temperature: 15°C
Dew Point: 5°C
Humidity: 51%
Barometer: 1006 hPa
Clouds: Partly cloudy
Visibility: 6 miles , 10 km
Cloud details: Partly cloudy 1280 m
2022/05/25 17:20 EGNT 251720Z 28022KT 9999 SCT042 15/05 Q1006
EGQM - Boulmer, United Kingdom
Distance from station: N 29mi, 47km
Updated: 25/05/2022 17:50
Mostly cloudy
Mostly cloudy
 Wind from W
Wind: W 18 mph , 30 km/h, Gust: 33 mph , 54 km/h
Temperature: 16°C
Dew Point: 6°C
Humidity: 52%
Barometer: 1005 hPa
Clouds: Mostly cloudy
Visibility: 6 miles , 10 km
Cloud details: Mostly cloudy 1372 m
2022/05/25 16:50 EGQM 251650Z AUTO 27016G29KT 9999 BKN045/// 16/06 Q1005
 
EGOM - Spadeadam, United Kingdom
Distance from station: W 34mi, 54km
Updated: 25/05/2022 18:20
Partly cloudy
Partly cloudy
 Wind from W
Wind: W 29 mph , 46 km/h
Temperature: 12°C
Dew Point: 4°C
Humidity: 58%
Barometer: 1007 hPa
Clouds: Partly cloudy
Visibility: 6 miles , 10 km
Cloud details: Partly cloudy 914 m
2022/05/25 17:20 EGOM 251720Z AUTO 27025KT 9999 SCT030/// 12/04 Q1007
EGNV - Tees-Side, United Kingdom
Distance from station: SSE 35mi, 57km
Updated: 25/05/2022 18:20
Partly cloudy
Partly cloudy
 Wind from W
Wind: W 20 mph , 31 km/h, Gust: 32 mph , 52 km/h
Temperature: 15°C
Dew Point: 6°C
Humidity: 55%
Barometer: 1008 hPa
Clouds: Partly cloudy
Visibility: 6 miles , 10 km
Cloud details: Few Clouds 762 m
Partly cloudy 1341 m
2022/05/25 17:20 EGNV 251720Z 26017G28KT 9999 FEW025 SCT044 15/06 Q1008
 
EGXE - Leeming Raf, United Kingdom
Distance from station: S 50mi, 81km
Updated: 25/05/2022 17:50
Mostly cloudy
Mostly cloudy
 Wind from W
Wind: W 18 mph , 30 km/h, Gust: 30 mph , 48 km/h
Temperature: 17°C
Dew Point: 8°C
Humidity: 56%
Barometer: 1008 hPa
Clouds: Mostly cloudy
Visibility: 6 miles , 10 km
Cloud details: Mostly cloudy 1829 m
2022/05/25 16:50 EGXE 251650Z AUTO 27016G26KT 9999 BKN060/// 17/08 Q1008
EGXZ - Topcliffe Raf, United Kingdom
Distance from station: SSE 57mi, 91km
Updated: 25/05/2022 17:50
Mostly cloudy
Mostly cloudy
 Wind from WSW
Wind: WSW 21 mph , 33 km/h
Temperature: 16°C
Dew Point: 8°C
Humidity: 59%
Barometer: 1008 hPa
Clouds: Mostly cloudy
Visibility: 6 miles , 10 km
Cloud details: Mostly cloudy 1829 m
2022/05/25 16:50 EGXZ 251650Z AUTO 25018KT 9999 BKN060/// 16/08 Q1008
 
EGNM - Leeds And Bradfo, United Kingdom
Distance from station: S 78mi, 126km
Updated: 25/05/2022 18:20
Partly cloudy
Partly cloudy
 Wind from W
Wind: W 20 mph , 31 km/h
Temperature: 14°C
Dew Point: 8°C
Humidity: 67%
Barometer: 1010 hPa
Clouds: Partly cloudy
Visibility: 6 miles , 10 km
Cloud details: Few Clouds 853 m
Partly cloudy 1006 m
2022/05/25 17:20 EGNM 251720Z 26017KT 9999 FEW028 SCT033 14/08 Q1010
EGPH - Edinburgh Airpor, United Kingdom
Distance from station: NW 92mi, 148km
Updated: 25/05/2022 18:20
Partly cloudy
Partly cloudy
 Wind from W
Wind: W 16 mph , 26 km/h, Gust: 28 mph , 44 km/h
Temperature: 14°C
Dew Point: 5°C
Humidity: 55%
Barometer: 1005 hPa
Clouds: Partly cloudy
Visibility: 6 miles , 10 km
Cloud details: Few Clouds 853 m
Partly cloudy 1189 m
2022/05/25 17:20 EGPH 251720Z 27014G24KT 240V310 9999 FEW028 SCT039 14/05 Q1005
 
EGXV - Leconfield (aut), United Kingdom
Distance from station: SE 93mi, 150km
Updated: 16/05/2022 10:50
NOT Current
Haze, Mostly cloudy
Haze, Mostly cloudy
 Wind from ENE
Wind: ENE 2 mph , 4 km/h
Temperature: 13°C
Dew Point: 12°C
Humidity: 94%
Barometer: 1012 hPa
Summary: Haze
Clouds: Mostly cloudy
Visibility: 6 miles , 9 km
Cloud details: Mostly cloudy 244 m
Mostly cloudy 1524 m
2022/05/16 09:50 EGXV 160950Z AUTO 07002KT 9000 HZ BKN008/// BKN050/// 13/12 Q1012 RERA
EGNO - Wharton, United Kingdom
Distance from station: SSW 99mi, 159km
Updated: 25/05/2022 18:20
Few Clouds
Few Clouds
 Wind from W
Wind: W 20 mph , 31 km/h
Temperature: 15°C
Dew Point: 10°C
Humidity: 72%
Barometer: 1011 hPa
Clouds: Few Clouds
Visibility: 6 miles , 10 km
Cloud details: Few Clouds 914 m
2022/05/25 17:20 EGNO 251720Z 28017KT 9999 FEW030 15/10 Q1011
 
EGNH - Blackpool Airpor, United Kingdom
Distance from station: SSW 100mi, 161km
Updated: 25/05/2022 18:20
Few Clouds
Few Clouds
 Wind from W
Wind: W 21 mph , 33 km/h
Temperature: 15°C
Dew Point: 11°C
Humidity: 77%
Barometer: 1011 hPa
Clouds: Few Clouds
Visibility: 6 miles , 10 km
Cloud details: Few Clouds 610 m
2022/05/25 17:20 EGNH 251720Z 28018KT 9999 FEW020 15/11 Q1011